createdAt,value
2022-10-01T00:00:48.308Z,952.74
2022-10-01T00:01:50.689Z,952.7
2022-10-01T00:02:52.109Z,952.69
2022-10-01T00:03:54.148Z,952.7
2022-10-01T00:04:57.148Z,952.69
2022-10-01T00:05:59.108Z,952.66
2022-10-01T00:07:01.353Z,952.7
2022-10-01T00:08:11.628Z,952.69
2022-10-01T00:09:12.254Z,952.71
2022-10-01T00:10:13.735Z,952.72
2022-10-01T00:12:27.569Z,952.73
2022-10-01T00:13:30.832Z,952.77
2022-10-01T00:14:32.552Z,952.76
2022-10-01T00:15:34.022Z,952.75
2022-10-01T00:16:35.849Z,952.75
2022-10-01T00:17:37.432Z,952.74
2022-10-01T00:18:39.431Z,952.76
2022-10-01T00:19:41.477Z,952.77
2022-10-01T00:20:43.483Z,952.78
2022-10-01T00:21:45.471Z,952.75
2022-10-01T00:22:47.434Z,952.77
2022-10-01T00:23:50.435Z,952.74
2022-10-01T00:24:52.475Z,952.76
2022-10-01T00:25:54.439Z,952.78
2022-10-01T00:26:56.440Z,952.78
2022-10-01T00:27:59.461Z,952.78
2022-10-01T00:29:02.435Z,952.79
2022-10-01T00:30:04.468Z,952.78
2022-10-01T00:31:06.481Z,952.76
2022-10-01T00:32:09.443Z,952.78
2022-10-01T00:33:11.446Z,952.78
2022-10-01T00:34:13.443Z,952.78
2022-10-01T00:35:15.442Z,952.79
2022-10-01T00:36:17.444Z,952.8
2022-10-01T00:37:19.440Z,952.82
2022-10-01T00:38:21.448Z,952.79
2022-10-01T00:39:24.447Z,952.79
2022-10-01T00:40:26.444Z,952.79
2022-10-01T00:41:28.456Z,952.73
2022-10-01T00:42:30.451Z,952.71
2022-10-01T00:43:32.459Z,952.68
2022-10-01T00:44:35.464Z,952.65
2022-10-01T00:45:38.576Z,952.65
2022-10-01T00:46:40.463Z,952.61
2022-10-01T00:47:42.447Z,952.6
2022-10-01T00:48:44.453Z,952.61
2022-10-01T00:50:49.461Z,952.58
2022-10-01T00:51:52.463Z,952.61
2022-10-01T00:52:54.464Z,952.59
2022-10-01T00:53:56.458Z,952.57
2022-10-01T00:54:59.468Z,952.56
2022-10-01T00:56:13.889Z,952.58
2022-10-01T00:57:14.480Z,952.57
2022-10-01T00:58:13.408Z,952.55
2022-10-01T00:59:12.903Z,952.57
2022-10-01T01:00:31.660Z,952.57
2022-10-01T01:01:33.930Z,952.58
2022-10-01T01:02:25.566Z,952.6
2022-10-01T01:03:29.631Z,952.59
2022-10-01T01:04:44.387Z,952.62
2022-10-01T01:05:32.620Z,952.63
2022-10-01T01:06:26.392Z,952.66
2022-10-01T01:07:46.552Z,952.65
2022-10-01T01:08:38.611Z,952.62
2022-10-01T01:11:05.215Z,952.64
2022-10-01T01:11:09.670Z,952.61
2022-10-01T01:11:51.147Z,952.64
2022-10-01T01:12:41.352Z,952.63
2022-10-01T01:13:41.635Z,952.61
2022-10-01T01:14:42.139Z,952.62
2022-10-01T01:15:53.702Z,952.6
2022-10-01T01:16:48.840Z,952.58
2022-10-01T01:18:55.121Z,952.58
2022-10-01T01:19:52.575Z,952.53
2022-10-01T01:21:04.626Z,952.53
2022-10-01T01:22:06.814Z,952.54
2022-10-01T01:23:09.652Z,952.53
2022-10-01T01:24:13.622Z,952.51
2022-10-01T01:25:28.934Z,952.53
2022-10-01T01:26:06.567Z,952.54
2022-10-01T01:27:17.108Z,952.55
2022-10-01T01:28:22.264Z,952.54
2022-10-01T01:29:25.078Z,952.53
2022-10-01T01:30:15.494Z,952.52
2022-10-01T01:31:31.944Z,952.52
2022-10-01T01:32:19.848Z,952.49
2022-10-01T01:33:38.557Z,952.48
2022-10-01T01:34:29.525Z,952.49
2022-10-01T01:35:25.600Z,952.49
2022-10-01T01:36:27.582Z,952.48
2022-10-01T01:37:40.718Z,952.45
2022-10-01T01:38:33.297Z,952.46
2022-10-01T01:39:54.328Z,952.44
2022-10-01T01:40:35.987Z,952.43
2022-10-01T01:41:37.895Z,952.41
2022-10-01T01:42:39.624Z,952.37
2022-10-01T01:43:41.607Z,952.37
2022-10-01T01:44:43.584Z,952.32
2022-10-01T01:45:46.652Z,952.34
2022-10-01T01:46:48.590Z,952.33
2022-10-01T01:47:50.592Z,952.36
2022-10-01T01:48:52.632Z,952.3
2022-10-01T01:49:54.589Z,952.31
2022-10-01T01:50:56.588Z,952.3
2022-10-01T01:51:59.609Z,952.24
2022-10-01T01:53:02.593Z,952.23
2022-10-01T01:54:04.608Z,952.23
2022-10-01T01:55:06.597Z,952.18
2022-10-01T01:56:08.593Z,952.17
2022-10-01T01:57:10.596Z,952.2
2022-10-01T01:58:12.812Z,952.14
2022-10-01T01:59:14.779Z,952.12
2022-10-01T02:00:16.591Z,952.11
2022-10-01T02:01:18.633Z,952.09
2022-10-01T02:02:20.637Z,952.14
2022-10-01T02:03:22.604Z,952.12
2022-10-01T02:04:24.622Z,952.1
2022-10-01T02:05:26.593Z,952.08
2022-10-01T02:06:28.600Z,952.1
2022-10-01T02:07:30.605Z,952.11
2022-10-01T02:08:32.604Z,952.1
2022-10-01T02:09:34.629Z,952.07
2022-10-01T02:10:36.604Z,952.1
2022-10-01T02:11:38.601Z,952.09
2022-10-01T02:12:40.610Z,952.09
2022-10-01T02:13:42.639Z,952.12
2022-10-01T02:14:44.627Z,952.12
2022-10-01T02:15:46.637Z,952.08
2022-10-01T02:16:48.607Z,952.1
2022-10-01T02:17:50.631Z,952.06
2022-10-01T02:18:52.607Z,952.06
2022-10-01T02:19:54.627Z,952.06
2022-10-01T02:20:56.605Z,952.08
2022-10-01T02:21:59.621Z,952.06
2022-10-01T02:23:02.602Z,952.06
2022-10-01T02:24:04.615Z,952.09
2022-10-01T02:25:06.643Z,952.1
2022-10-01T02:26:08.609Z,952.09
2022-10-01T02:27:10.610Z,952.09
2022-10-01T02:28:12.693Z,952.08
2022-10-01T02:29:14.636Z,952.07
2022-10-01T02:30:16.613Z,952.02
2022-10-01T02:31:18.663Z,952.06
2022-10-01T02:32:20.615Z,952.06
2022-10-01T02:33:23.614Z,952.01
2022-10-01T02:34:25.612Z,952.02
2022-10-01T02:35:27.618Z,951.99
2022-10-01T02:36:29.630Z,952.03
2022-10-01T02:37:31.617Z,952
2022-10-01T02:38:34.617Z,951.99
2022-10-01T02:39:36.618Z,951.99
2022-10-01T02:40:38.623Z,952.01
2022-10-01T02:41:40.636Z,952.02
2022-10-01T02:42:42.619Z,951.97
2022-10-01T02:43:44.626Z,951.95
2022-10-01T02:44:47.653Z,951.97
2022-10-01T02:45:49.640Z,951.97
2022-10-01T02:46:51.639Z,951.95
2022-10-01T02:47:53.633Z,951.91
2022-10-01T02:48:55.647Z,951.92
2022-10-01T02:49:57.627Z,951.92
2022-10-01T02:50:59.640Z,951.87
2022-10-01T02:52:03.654Z,951.91
2022-10-01T02:53:05.638Z,951.9
2022-10-01T02:54:07.632Z,951.89
2022-10-01T02:55:09.633Z,951.9
2022-10-01T02:56:11.637Z,951.94
2022-10-01T02:57:13.662Z,951.93
2022-10-01T02:58:15.632Z,951.9
2022-10-01T02:59:17.634Z,951.88
2022-10-01T03:00:19.630Z,951.86
2022-10-01T03:01:21.719Z,951.86
2022-10-01T03:02:23.710Z,951.84
2022-10-01T03:03:25.635Z,951.85
2022-10-01T03:04:27.635Z,951.85
2022-10-01T03:05:29.640Z,951.86
2022-10-01T03:06:31.649Z,951.86
2022-10-01T03:07:33.640Z,951.84
2022-10-01T03:08:36.662Z,951.78
2022-10-01T03:09:38.636Z,951.81
2022-10-01T03:10:46.007Z,951.79
2022-10-01T03:11:43.640Z,951.79
2022-10-01T03:12:45.649Z,951.81
2022-10-01T03:13:48.680Z,951.81
2022-10-01T03:14:50.649Z,951.77
2022-10-01T03:15:52.721Z,951.8
2022-10-01T03:16:54.678Z,951.79
2022-10-01T03:17:56.646Z,951.76
2022-10-01T03:18:59.695Z,951.76
2022-10-01T03:20:02.667Z,951.74
2022-10-01T03:21:04.651Z,951.77
2022-10-01T03:22:06.648Z,951.72
2022-10-01T03:23:08.650Z,951.71
2022-10-01T03:24:10.678Z,951.71
2022-10-01T03:25:12.659Z,951.7
2022-10-01T03:26:14.674Z,951.68
2022-10-01T03:27:16.654Z,951.67
2022-10-01T03:28:18.718Z,951.66
2022-10-01T03:29:20.844Z,951.69
2022-10-01T03:30:23.659Z,951.65
2022-10-01T03:31:25.670Z,951.64
2022-10-01T03:32:27.655Z,951.6
2022-10-01T03:33:29.657Z,951.62
2022-10-01T03:34:31.676Z,951.62
2022-10-01T03:35:33.659Z,951.59
2022-10-01T03:36:35.655Z,951.63
2022-10-01T03:37:37.660Z,951.62
2022-10-01T03:38:40.656Z,951.62
2022-10-01T03:39:42.701Z,951.56
2022-10-01T03:40:45.691Z,951.57
2022-10-01T03:41:47.657Z,951.56
2022-10-01T03:42:49.665Z,951.54
2022-10-01T03:43:51.692Z,951.49
2022-10-01T03:44:53.662Z,951.48
2022-10-01T03:45:55.771Z,951.48
2022-10-01T03:46:57.711Z,951.45
2022-10-01T03:47:59.687Z,951.44
2022-10-01T03:49:03.666Z,951.41
2022-10-01T03:50:05.679Z,951.4
2022-10-01T03:51:07.697Z,951.38
2022-10-01T03:52:09.675Z,951.42
2022-10-01T03:53:11.672Z,951.41
2022-10-01T03:54:13.672Z,951.35
2022-10-01T03:55:15.671Z,951.36
2022-10-01T03:56:17.669Z,951.39
2022-10-01T03:57:19.677Z,951.41
2022-10-01T03:58:22.672Z,951.41
2022-10-01T03:59:24.709Z,951.42
2022-10-01T04:00:26.674Z,951.4
2022-10-01T04:01:28.759Z,951.42
2022-10-01T04:02:30.752Z,951.42
2022-10-01T04:03:32.675Z,951.38
2022-10-01T04:04:34.682Z,951.38
2022-10-01T04:05:36.678Z,951.38
2022-10-01T04:06:38.679Z,951.32
2022-10-01T04:07:40.685Z,951.3
2022-10-01T04:08:42.684Z,951.26
2022-10-01T04:09:45.680Z,951.23
2022-10-01T04:10:47.683Z,951.24
2022-10-01T04:11:49.679Z,951.21
2022-10-01T04:12:51.684Z,951.18
2022-10-01T04:13:53.683Z,951.18
2022-10-01T04:14:55.683Z,951.23
2022-10-01T04:15:57.739Z,951.23
2022-10-01T04:16:59.747Z,951.21
2022-10-01T04:18:02.689Z,951.25
2022-10-01T04:19:04.717Z,951.29
2022-10-01T04:20:06.692Z,951.25
2022-10-01T04:21:08.689Z,951.3
2022-10-01T04:22:10.695Z,951.3
2022-10-01T04:23:12.692Z,951.28
2022-10-01T04:24:14.717Z,951.28
2022-10-01T04:25:16.692Z,951.29
2022-10-01T04:26:18.724Z,951.27
2022-10-01T04:27:20.686Z,951.28
2022-10-01T04:28:22.766Z,951.22
2022-10-01T04:29:24.699Z,951.24
2022-10-01T04:30:27.723Z,951.24
2022-10-01T04:31:29.723Z,951.21
2022-10-01T04:32:31.725Z,951.28
2022-10-01T04:33:33.696Z,951.27
2022-10-01T04:34:35.697Z,951.19
2022-10-01T04:35:37.724Z,951.18
2022-10-01T04:36:39.739Z,951.22
2022-10-01T04:37:41.707Z,951.16
2022-10-01T04:38:43.728Z,951.14
2022-10-01T04:39:45.704Z,951.09
2022-10-01T04:40:47.720Z,951.08
2022-10-01T04:41:49.703Z,951.05
2022-10-01T04:42:51.704Z,951.06
2022-10-01T04:43:53.713Z,951.06
2022-10-01T04:44:55.710Z,951.06
2022-10-01T04:45:57.708Z,951.04
2022-10-01T04:46:59.775Z,951.09
2022-10-01T04:48:02.736Z,951.04
2022-10-01T04:49:04.707Z,951.05
2022-10-01T04:50:07.726Z,951.02
2022-10-01T04:51:09.704Z,951.02
2022-10-01T04:52:11.742Z,951.03
2022-10-01T04:53:13.762Z,951.04
2022-10-01T04:54:15.712Z,951
2022-10-01T04:55:17.708Z,950.96
2022-10-01T04:56:19.718Z,950.98
2022-10-01T04:57:21.707Z,950.96
2022-10-01T04:58:23.773Z,950.94
2022-10-01T04:59:25.750Z,950.96
2022-10-01T05:00:27.716Z,950.9
2022-10-01T05:01:29.769Z,950.92
2022-10-01T05:02:32.767Z,950.87
2022-10-01T05:03:34.844Z,950.93
2022-10-01T05:04:36.744Z,950.91
2022-10-01T05:05:38.726Z,950.92
2022-10-01T05:06:40.714Z,950.95
2022-10-01T05:07:43.723Z,950.94
2022-10-01T05:08:45.724Z,950.94
2022-10-01T05:09:47.745Z,950.92
2022-10-01T05:10:49.724Z,950.97
2022-10-01T05:11:51.762Z,950.98
2022-10-01T05:12:53.725Z,950.98
2022-10-01T05:13:56.724Z,950.97
2022-10-01T05:14:59.783Z,950.94
2022-10-01T05:16:02.741Z,950.93
2022-10-01T05:17:04.740Z,950.92
2022-10-01T05:18:06.766Z,950.89
2022-10-01T05:19:08.720Z,950.85
2022-10-01T05:20:10.724Z,950.84
2022-10-01T05:21:12.735Z,950.88
2022-10-01T05:22:14.730Z,950.86
2022-10-01T05:23:16.761Z,950.89
2022-10-01T05:24:18.727Z,950.91
2022-10-01T05:25:20.732Z,950.89
2022-10-01T05:26:22.726Z,950.88
2022-10-01T05:27:24.732Z,950.89
2022-10-01T05:28:26.887Z,950.87
2022-10-01T05:29:28.735Z,950.86
2022-10-01T05:30:30.732Z,950.84
2022-10-01T05:31:34.171Z,950.82
2022-10-01T05:32:35.735Z,950.78
2022-10-01T05:33:37.769Z,950.8
2022-10-01T05:34:39.754Z,950.77
2022-10-01T05:35:41.740Z,950.73
2022-10-01T05:36:44.738Z,950.73
2022-10-01T05:37:46.778Z,950.72
2022-10-01T05:38:48.744Z,950.74
2022-10-01T05:39:51.744Z,950.77
2022-10-01T05:40:53.735Z,950.77
2022-10-01T05:41:56.744Z,950.78
2022-10-01T05:42:59.840Z,950.73
2022-10-01T05:44:02.742Z,950.79
2022-10-01T05:45:04.739Z,950.83
2022-10-01T05:46:06.843Z,950.85
2022-10-01T05:47:08.743Z,950.82
2022-10-01T05:48:10.801Z,950.89
2022-10-01T05:49:12.749Z,950.92
2022-10-01T05:50:14.747Z,950.95
2022-10-01T05:51:16.753Z,950.93
2022-10-01T05:52:18.751Z,950.95
2022-10-01T05:53:21.109Z,950.91
2022-10-01T05:54:22.750Z,950.95
2022-10-01T05:55:24.756Z,950.99
2022-10-01T05:56:27.760Z,951
2022-10-01T05:57:29.751Z,951.04
2022-10-01T05:58:31.813Z,951.02
2022-10-01T05:59:33.740Z,951.07
2022-10-01T06:00:35.754Z,951.07
2022-10-01T06:01:37.939Z,951.07
2022-10-01T06:02:39.853Z,951.08
2022-10-01T06:03:41.785Z,951.11
2022-10-01T06:04:43.761Z,951.13
2022-10-01T06:05:46.761Z,951.11
2022-10-01T06:06:48.757Z,951.09
2022-10-01T06:07:50.768Z,951.11
2022-10-01T06:08:53.791Z,951.11
2022-10-01T06:09:55.785Z,951.08
2022-10-01T06:10:57.762Z,951.05
2022-10-01T06:11:59.781Z,951.07
2022-10-01T06:13:03.764Z,951.08
2022-10-01T06:14:05.803Z,951.05
2022-10-01T06:15:07.782Z,951.04
2022-10-01T06:16:09.874Z,951.01
2022-10-01T06:17:11.767Z,951.02
2022-10-01T06:18:13.772Z,951
2022-10-01T06:19:15.767Z,950.92
2022-10-01T06:20:17.769Z,950.96
2022-10-01T06:21:20.801Z,950.9
2022-10-01T06:22:22.793Z,950.9
2022-10-01T06:23:24.771Z,950.83
2022-10-01T06:24:27.813Z,950.79
2022-10-01T06:25:29.782Z,950.72
2022-10-01T06:26:32.821Z,950.7
2022-10-01T06:27:34.792Z,950.73
2022-10-01T06:28:36.773Z,950.75
2022-10-01T06:29:38.777Z,950.7
2022-10-01T06:30:40.792Z,950.69
2022-10-01T06:31:42.849Z,950.68
2022-10-01T06:32:44.774Z,950.68
2022-10-01T06:33:46.798Z,950.73
2022-10-01T06:34:48.780Z,950.68
2022-10-01T06:35:50.777Z,950.62
2022-10-01T06:36:52.815Z,950.56
2022-10-01T06:37:54.779Z,950.56
2022-10-01T06:38:56.787Z,950.58
2022-10-01T06:41:02.784Z,950.57
2022-10-01T06:42:04.804Z,950.54
2022-10-01T06:44:08.783Z,950.54
2022-10-01T06:45:10.789Z,950.54
2022-10-01T06:46:12.828Z,950.49
2022-10-01T06:48:16.832Z,950.56
2022-10-01T06:49:18.850Z,950.58
2022-10-01T06:52:32.766Z,950.52
2022-10-01T06:53:34.834Z,950.5
2022-10-01T06:54:37.414Z,950.48
2022-10-01T06:55:39.419Z,950.47
2022-10-01T06:56:41.399Z,950.47
2022-10-01T06:57:43.403Z,950.41
2022-10-01T06:58:46.476Z,950.48
2022-10-01T06:59:48.429Z,950.42
2022-10-01T07:00:50.550Z,950.43
2022-10-01T07:01:56.192Z,950.4
2022-10-01T07:02:55.410Z,950.41
2022-10-01T07:03:57.408Z,950.36
2022-10-01T07:06:05.500Z,950.29
2022-10-01T07:07:07.409Z,950.35
2022-10-01T07:08:09.449Z,950.32
2022-10-01T07:09:11.585Z,950.32
2022-10-01T07:10:15.423Z,950.33
2022-10-01T07:11:17.407Z,950.31
2022-10-01T07:12:19.412Z,950.32
2022-10-01T07:13:21.420Z,950.34
2022-10-01T07:14:23.451Z,950.31
2022-10-01T07:15:25.416Z,950.3
2022-10-01T07:16:27.488Z,950.29
2022-10-01T07:17:29.416Z,950.26
2022-10-01T07:18:31.461Z,950.23
2022-10-01T07:19:33.439Z,950.21
2022-10-01T07:20:35.414Z,950.27
2022-10-01T07:21:37.606Z,950.17
2022-10-01T07:22:39.416Z,950.17
2022-10-01T07:23:41.450Z,950.19
2022-10-01T07:24:43.416Z,950.21
2022-10-01T07:25:45.420Z,950.19
2022-10-01T07:26:47.469Z,950.2
2022-10-01T07:27:49.474Z,950.24
2022-10-01T07:28:51.425Z,950.29
2022-10-01T07:29:53.428Z,950.24
2022-10-01T07:30:55.426Z,950.24
2022-10-01T07:31:57.504Z,950.26
2022-10-01T07:32:59.452Z,950.23
2022-10-01T07:34:03.440Z,950.28
2022-10-01T07:35:05.438Z,950.23
2022-10-01T07:36:07.434Z,950.26
2022-10-01T07:37:09.428Z,950.24
2022-10-01T07:38:11.645Z,950.17
2022-10-01T07:39:15.462Z,950.12
2022-10-01T07:40:17.434Z,950.1
2022-10-01T07:41:19.437Z,950.11
2022-10-01T07:42:21.439Z,950.15
2022-10-01T07:43:24.617Z,950.14
2022-10-01T07:44:26.428Z,950.15
2022-10-01T07:45:28.525Z,950.16
2022-10-01T07:46:34.638Z,950.13
2022-10-01T07:47:33.445Z,950.08
2022-10-01T07:48:35.456Z,950.07
2022-10-01T07:49:37.445Z,950.08
2022-10-01T07:50:39.442Z,950.07
2022-10-01T07:51:41.428Z,950.07
2022-10-01T07:52:43.453Z,950.05
2022-10-01T07:53:45.492Z,950.06
2022-10-01T07:54:47.667Z,950.03
2022-10-01T07:55:49.455Z,950.08
2022-10-01T07:56:51.453Z,950.04
2022-10-01T07:57:54.445Z,950.03
2022-10-01T07:58:56.467Z,949.95
2022-10-01T07:59:59.467Z,950.01
2022-10-01T08:01:02.489Z,950.03
2022-10-01T08:02:04.511Z,949.99
2022-10-01T08:03:06.520Z,949.99
2022-10-01T08:04:08.494Z,949.97
2022-10-01T08:05:10.482Z,949.99
2022-10-01T08:06:12.453Z,950
2022-10-01T08:07:14.451Z,950.01
2022-10-01T08:08:16.457Z,950
2022-10-01T08:09:18.452Z,949.97
2022-10-01T08:10:20.454Z,950.01
2022-10-01T08:11:22.476Z,950
2022-10-01T08:12:24.465Z,949.97
2022-10-01T08:13:26.456Z,949.96
2022-10-01T08:14:28.487Z,949.94
2022-10-01T08:15:30.457Z,949.95
2022-10-01T08:16:32.492Z,949.89
2022-10-01T08:17:34.455Z,949.89
2022-10-01T08:18:36.566Z,949.89
2022-10-01T08:19:38.479Z,949.91
2022-10-01T08:20:40.462Z,949.84
2022-10-01T08:21:42.495Z,949.86
2022-10-01T08:22:44.515Z,949.84
2022-10-01T08:24:11.336Z,949.83
2022-10-01T08:25:11.380Z,949.86
2022-10-01T08:26:18.403Z,949.84
2022-10-01T08:27:11.481Z,949.91
2022-10-01T08:28:11.482Z,949.88
2022-10-01T08:29:16.211Z,949.87
2022-10-01T08:30:11.346Z,949.87
2022-10-01T08:31:11.350Z,949.9
2022-10-01T08:32:11.409Z,949.92
2022-10-01T08:33:11.335Z,949.92
2022-10-01T08:34:11.351Z,949.98
2022-10-01T08:35:12.233Z,949.94
2022-10-01T08:36:14.226Z,949.92
2022-10-01T08:37:16.227Z,949.88
2022-10-01T08:38:18.264Z,949.93
2022-10-01T08:39:20.237Z,949.97
2022-10-01T08:40:22.237Z,949.92
2022-10-01T08:41:25.232Z,949.89
2022-10-01T08:42:27.267Z,949.96
2022-10-01T08:43:30.273Z,949.97
2022-10-01T08:45:34.262Z,949.95
2022-10-01T08:48:40.283Z,949.91
2022-10-01T08:49:42.238Z,949.87
2022-10-01T08:50:44.252Z,949.94
2022-10-01T08:51:46.242Z,949.96
2022-10-01T08:52:48.243Z,949.83
2022-10-01T08:53:50.275Z,949.84
2022-10-01T08:54:52.245Z,949.79
2022-10-01T08:55:55.241Z,949.78
2022-10-01T08:56:57.272Z,949.8
2022-10-01T08:57:59.262Z,949.78
2022-10-01T08:59:02.267Z,949.79
2022-10-01T09:00:04.258Z,949.75
2022-10-01T09:01:06.278Z,949.68
2022-10-01T09:02:08.249Z,949.71
2022-10-01T09:03:10.243Z,949.75
2022-10-01T09:04:12.346Z,949.73
2022-10-01T09:05:14.242Z,949.73
2022-10-01T09:06:16.249Z,949.73
2022-10-01T09:07:18.248Z,949.66
2022-10-01T09:08:21.296Z,949.69
2022-10-01T09:09:23.241Z,949.75
2022-10-01T09:10:25.251Z,949.73
2022-10-01T09:11:28.252Z,949.71
2022-10-01T09:12:30.301Z,949.7
2022-10-01T09:13:32.299Z,949.69
2022-10-01T09:14:35.257Z,949.73
2022-10-01T09:15:37.259Z,949.69
2022-10-01T09:16:39.319Z,949.67
2022-10-01T09:17:41.257Z,949.7
2022-10-01T09:18:43.295Z,949.7
2022-10-01T09:19:47.866Z,949.7
2022-10-01T09:20:47.253Z,949.69
2022-10-01T09:21:50.260Z,949.72
2022-10-01T09:22:52.267Z,949.67
2022-10-01T09:23:55.259Z,949.66
2022-10-01T09:24:59.330Z,949.64
2022-10-01T09:26:02.263Z,949.66
2022-10-01T09:27:04.265Z,949.68
2022-10-01T09:28:06.356Z,949.7
2022-10-01T09:29:08.268Z,949.67
2022-10-01T09:30:10.305Z,949.61
2022-10-01T09:31:12.300Z,949.66
2022-10-01T09:32:14.266Z,949.63
2022-10-01T09:33:16.297Z,949.62
2022-10-01T09:34:18.297Z,949.64
2022-10-01T09:35:20.284Z,949.59
2022-10-01T09:36:22.278Z,949.59
2022-10-01T09:37:24.280Z,949.55
2022-10-01T09:38:26.275Z,949.6
2022-10-01T09:39:28.303Z,949.6
2022-10-01T09:40:30.275Z,949.56
2022-10-01T09:41:33.697Z,949.53
2022-10-01T09:42:35.280Z,949.49
2022-10-01T09:43:37.272Z,949.48
2022-10-01T09:44:39.307Z,949.49
2022-10-01T09:45:41.339Z,949.44
2022-10-01T09:46:43.353Z,949.42
2022-10-01T09:47:46.285Z,949.37
2022-10-01T09:48:48.302Z,949.29
2022-10-01T09:49:50.475Z,949.34
2022-10-01T09:50:52.284Z,949.3
2022-10-01T09:51:54.284Z,949.32
2022-10-01T09:52:56.281Z,949.28
2022-10-01T09:53:59.304Z,949.24
2022-10-01T09:55:02.328Z,949.22
2022-10-01T09:56:04.288Z,949.18
2022-10-01T09:57:06.286Z,949.12
2022-10-01T09:58:08.286Z,949.17
2022-10-01T09:59:10.294Z,949.2
2022-10-01T10:00:12.298Z,949.06
2022-10-01T10:01:14.301Z,949.05
2022-10-01T10:02:16.441Z,949.09
2022-10-01T10:03:18.460Z,948.99
2022-10-01T10:04:21.365Z,948.94
2022-10-01T10:05:23.349Z,948.89
2022-10-01T10:06:25.299Z,948.84
2022-10-01T10:07:27.296Z,948.83
2022-10-01T10:08:29.292Z,948.87
2022-10-01T10:09:31.298Z,948.87
2022-10-01T10:10:33.344Z,948.9
2022-10-01T10:11:35.676Z,948.83
2022-10-01T10:12:37.321Z,948.86
2022-10-01T10:13:39.467Z,948.84
2022-10-01T10:14:41.300Z,948.85
2022-10-01T10:15:43.467Z,948.85
2022-10-01T10:16:46.333Z,948.84
2022-10-01T10:17:48.311Z,948.8
2022-10-01T10:18:50.295Z,948.8
2022-10-01T10:19:52.346Z,948.78
2022-10-01T10:20:54.318Z,948.83
2022-10-01T10:21:56.301Z,948.79
2022-10-01T10:22:59.332Z,948.77
2022-10-01T10:24:02.309Z,948.66
2022-10-01T10:25:05.334Z,948.68
2022-10-01T10:26:07.320Z,948.7
2022-10-01T10:28:26.005Z,948.73
2022-10-01T10:29:15.553Z,948.77
2022-10-01T10:30:17.672Z,948.81
2022-10-01T10:31:19.579Z,948.8
2022-10-01T10:32:21.552Z,948.7
2022-10-01T10:33:23.533Z,948.72
2022-10-01T10:34:25.549Z,948.76
2022-10-01T10:35:28.533Z,948.69
2022-10-01T10:36:30.538Z,948.67
2022-10-01T10:37:32.584Z,948.71
2022-10-01T10:38:34.526Z,948.71
2022-10-01T10:39:36.545Z,948.72
2022-10-01T10:40:38.538Z,948.67
2022-10-01T10:41:40.537Z,948.68
2022-10-01T10:42:42.556Z,948.66
2022-10-01T10:43:44.574Z,948.69
2022-10-01T10:44:47.564Z,948.68
2022-10-01T10:45:49.668Z,948.66
2022-10-01T10:46:52.663Z,948.7
2022-10-01T10:47:54.563Z,948.8
2022-10-01T10:48:56.567Z,948.79
2022-10-01T10:49:58.546Z,948.85
2022-10-01T10:51:01.236Z,948.75
2022-10-01T10:52:02.564Z,948.75
2022-10-01T10:53:04.549Z,948.7
2022-10-01T10:54:06.549Z,948.74
2022-10-01T10:55:08.541Z,948.78
2022-10-01T10:56:10.576Z,948.74
2022-10-01T10:57:12.590Z,948.73
2022-10-01T10:58:15.548Z,948.74
2022-10-01T10:59:17.544Z,948.74
2022-10-01T11:00:19.567Z,948.75
2022-10-01T11:01:21.670Z,948.79
2022-10-01T11:02:25.628Z,948.73
2022-10-01T11:03:28.592Z,948.75
2022-10-01T11:04:31.554Z,948.68
2022-10-01T11:05:33.561Z,948.73
2022-10-01T11:06:35.971Z,948.7
2022-10-01T11:07:37.557Z,948.74
2022-10-01T11:08:39.560Z,948.8
2022-10-01T11:09:41.558Z,948.78
2022-10-01T11:10:43.555Z,948.73
2022-10-01T11:11:45.556Z,948.67
2022-10-01T11:12:47.564Z,948.75
2022-10-01T11:13:49.559Z,948.77
2022-10-01T11:14:51.561Z,948.75
2022-10-01T11:15:53.609Z,948.79
2022-10-01T11:16:55.577Z,948.78
2022-10-01T11:17:57.559Z,948.75
2022-10-01T11:18:59.597Z,948.81
2022-10-01T11:20:01.564Z,948.78
2022-10-01T11:21:03.565Z,948.76
2022-10-01T11:22:05.567Z,948.76
2022-10-01T11:23:07.574Z,948.77
2022-10-01T11:24:09.599Z,948.78
2022-10-01T11:25:11.796Z,948.8
2022-10-01T11:26:13.561Z,948.75
2022-10-01T11:27:15.567Z,948.77
2022-10-01T11:28:17.620Z,948.81
2022-10-01T11:29:19.603Z,948.81
2022-10-01T11:30:21.570Z,948.77
2022-10-01T11:31:23.590Z,948.82
2022-10-01T11:32:29.575Z,948.73
2022-10-01T11:33:31.593Z,948.72
2022-10-01T11:34:33.603Z,948.75
2022-10-01T11:35:35.581Z,948.75
2022-10-01T11:36:38.591Z,948.72
2022-10-01T11:37:40.573Z,948.7
2022-10-01T11:38:42.599Z,948.69
2022-10-01T11:39:44.572Z,948.73
2022-10-01T11:40:46.585Z,948.72
2022-10-01T11:41:48.579Z,948.58
2022-10-01T11:42:51.582Z,948.7
2022-10-01T11:43:53.600Z,948.72
2022-10-01T11:45:00.413Z,948.66
2022-10-01T11:45:57.631Z,948.71
2022-10-01T11:46:59.640Z,948.72
2022-10-01T11:48:01.585Z,948.77
2022-10-01T11:49:03.607Z,948.77
2022-10-01T11:50:05.611Z,948.68
2022-10-01T11:51:07.592Z,948.74
2022-10-01T11:52:09.606Z,948.68
2022-10-01T11:53:11.836Z,948.69
2022-10-01T11:54:13.626Z,948.65
2022-10-01T11:55:15.593Z,948.65
2022-10-01T11:56:17.600Z,948.66
2022-10-01T11:57:19.591Z,948.57
2022-10-01T11:58:21.600Z,948.58
2022-10-01T11:59:25.624Z,948.52
2022-10-01T12:00:28.596Z,948.55
2022-10-01T12:01:30.724Z,948.57
2022-10-01T12:02:32.641Z,948.45
2022-10-01T12:03:34.601Z,948.48
2022-10-01T12:04:36.621Z,948.45
2022-10-01T12:05:38.683Z,948.45
2022-10-01T12:06:40.998Z,948.43
2022-10-01T12:07:42.593Z,948.35
2022-10-01T12:08:44.629Z,948.33
2022-10-01T12:09:46.605Z,948.3
2022-10-01T12:10:48.603Z,948.3
2022-10-01T12:11:50.602Z,948.37
2022-10-01T12:12:52.637Z,948.42
2022-10-01T12:13:54.606Z,948.44
2022-10-01T12:14:56.615Z,948.43
2022-10-01T12:15:58.674Z,948.49
2022-10-01T12:17:01.123Z,948.54
2022-10-01T12:18:02.651Z,948.58
2022-10-01T12:19:04.614Z,948.67
2022-10-01T12:20:06.604Z,948.62
2022-10-01T12:21:08.609Z,948.6
2022-10-01T12:22:10.613Z,948.64
2022-10-01T12:23:12.674Z,948.66
2022-10-01T12:24:14.631Z,948.62
2022-10-01T12:25:16.621Z,948.62
2022-10-01T12:26:18.619Z,948.62
2022-10-01T12:27:20.622Z,948.58
2022-10-01T12:28:23.769Z,948.54
2022-10-01T12:29:25.638Z,948.55
2022-10-01T12:30:28.617Z,948.56
2022-10-01T12:31:30.655Z,948.56
2022-10-01T12:32:32.627Z,948.58
2022-10-01T12:33:34.664Z,948.61
2022-10-01T12:34:36.626Z,948.58
2022-10-01T12:35:38.658Z,948.59
2022-10-01T12:36:40.616Z,948.61
2022-10-01T12:37:42.631Z,948.59
2022-10-01T12:38:44.673Z,948.6
2022-10-01T12:39:46.623Z,948.53
2022-10-01T12:40:48.620Z,948.57
2022-10-01T12:41:50.621Z,948.54
2022-10-01T12:42:52.629Z,948.57
2022-10-01T12:43:54.659Z,948.58
2022-10-01T12:44:56.631Z,948.58
2022-10-01T12:45:59.750Z,948.6
2022-10-01T12:47:01.628Z,948.56
2022-10-01T12:48:03.622Z,948.52
2022-10-01T12:49:05.629Z,948.57
2022-10-01T12:50:07.630Z,948.55
2022-10-01T12:51:09.662Z,948.58
2022-10-01T12:52:11.863Z,948.56
2022-10-01T12:53:13.636Z,948.61
2022-10-01T12:54:15.661Z,948.58
2022-10-01T12:55:17.674Z,948.56
2022-10-01T12:56:20.634Z,948.62
2022-10-01T12:57:22.642Z,948.55
2022-10-01T12:58:25.662Z,948.51
2022-10-01T12:59:28.641Z,948.55
2022-10-01T13:00:30.719Z,948.55
2022-10-01T13:01:32.707Z,948.52
2022-10-01T13:02:34.696Z,948.6
2022-10-01T13:03:36.640Z,948.59
2022-10-01T13:04:38.645Z,948.54
2022-10-01T13:05:40.678Z,948.59
2022-10-01T13:06:42.639Z,948.56
2022-10-01T13:07:44.643Z,948.57
2022-10-01T13:08:46.649Z,948.6
2022-10-01T13:09:49.187Z,948.6
2022-10-01T13:10:50.641Z,948.62
2022-10-01T13:11:52.649Z,948.55
2022-10-01T13:12:54.654Z,948.59